createdAt,value
2024-02-05T00:00:12.094Z,99370.41
2024-02-05T00:02:42.054Z,99353.38
2024-02-05T00:05:11.717Z,99337.78
2024-02-05T00:07:40.820Z,99341.16
2024-02-05T00:10:11.771Z,99359.63
2024-02-05T00:12:40.510Z,99356.19
2024-02-05T00:15:09.874Z,99349.75
2024-02-05T00:17:38.582Z,99344.38
2024-02-05T00:20:09.003Z,99355.22
2024-02-05T00:22:38.287Z,99344.69
2024-02-05T00:25:07.831Z,99340.47
2024-02-05T00:27:36.374Z,99335.09
2024-02-05T00:30:05.744Z,99343.38
2024-02-05T00:32:34.314Z,99329.41
2024-02-05T00:35:03.963Z,99320.28
2024-02-05T00:37:33.203Z,99317.56
2024-02-05T00:40:01.813Z,99324.25
2024-02-05T00:42:30.545Z,99333.81
2024-02-05T00:45:02.252Z,99326.94
2024-02-05T00:47:31.051Z,99324.13
2024-02-05T00:49:59.870Z,99322.66
2024-02-05T00:52:30.095Z,99306.94
2024-02-05T00:54:58.615Z,99320.72
2024-02-05T00:57:28.099Z,99309.63
2024-02-05T00:59:55.858Z,99309.09
2024-02-05T01:02:24.583Z,99310.72
2024-02-05T01:04:52.538Z,99301.78
2024-02-05T01:07:21.222Z,99301.59
2024-02-05T01:09:48.981Z,99290.72
2024-02-05T01:12:17.818Z,99285.56
2024-02-05T01:14:48.233Z,99282.13
2024-02-05T01:17:18.027Z,99280.09
2024-02-05T01:19:49.777Z,99272.75
2024-02-05T01:22:17.602Z,99281.03
2024-02-05T01:24:45.604Z,99281.59
2024-02-05T01:27:14.218Z,99288.03
2024-02-05T01:29:43.992Z,99277.94
2024-02-05T01:32:12.893Z,99274.50
2024-02-05T01:34:43.329Z,99268.19
2024-02-05T01:37:12.568Z,99266.75
2024-02-05T01:39:41.217Z,99269.66
2024-02-05T01:42:08.964Z,99255.69
2024-02-05T01:44:37.386Z,99273.88
2024-02-05T01:47:05.660Z,99278.16
2024-02-05T01:49:34.149Z,99282.25
2024-02-05T01:52:10.542Z,99265.81
2024-02-05T01:54:40.699Z,99257.31
2024-02-05T01:57:13.150Z,99271.28
2024-02-05T01:59:42.066Z,99256.44
2024-02-05T02:02:10.301Z,99255.38
2024-02-05T02:04:40.176Z,99256.56
2024-02-05T02:07:10.131Z,99272.66
2024-02-05T02:09:38.744Z,99283.00
2024-02-05T02:12:08.023Z,99283.72
2024-02-05T02:14:36.476Z,99282.56
2024-02-05T02:17:04.716Z,99277.72
2024-02-05T02:19:48.666Z,99264.81
2024-02-05T02:22:39.730Z,99269.34
2024-02-05T02:25:08.570Z,99274.19
2024-02-05T02:27:39.652Z,99258.16
2024-02-05T02:30:11.126Z,99269.13
2024-02-05T02:33:25.493Z,99269.22
2024-02-05T02:36:13.360Z,99266.00
2024-02-05T02:39:20.557Z,99255.59
2024-02-05T02:41:51.202Z,99255.38
2024-02-05T02:44:20.857Z,99260.94
2024-02-05T02:46:51.557Z,99257.50
2024-02-05T02:49:20.171Z,99261.59
2024-02-05T02:51:51.550Z,99243.25
2024-02-05T02:54:20.030Z,99255.16
2024-02-05T02:56:48.543Z,99244.50
2024-02-05T02:59:16.212Z,99240.00
2024-02-05T03:01:45.092Z,99244.84
2024-02-05T03:04:13.844Z,99232.69
2024-02-05T03:06:42.952Z,99221.00
2024-02-05T03:09:11.479Z,99215.41
2024-02-05T03:11:40.071Z,99223.91
2024-02-05T03:14:07.702Z,99233.97
2024-02-05T03:16:36.319Z,99230.78
2024-02-05T03:19:05.265Z,99236.16
2024-02-05T03:21:33.773Z,99231.09
2024-02-05T03:24:02.559Z,99227.22
2024-02-05T03:26:31.043Z,99220.06
2024-02-05T03:28:59.557Z,99224.66
2024-02-05T03:31:27.642Z,99227.66
2024-02-05T03:33:56.318Z,99225.06
2024-02-05T03:36:24.886Z,99231.72
2024-02-05T03:38:53.422Z,99224.66
2024-02-05T03:41:22.068Z,99240.53
2024-02-05T03:43:50.626Z,99238.59
2024-02-05T03:46:19.401Z,99254.72
2024-02-05T03:48:56.610Z,99251.06
2024-02-05T03:51:24.465Z,99250.72
2024-02-05T03:53:52.583Z,99247.22
2024-02-05T03:56:21.098Z,99256.88
2024-02-05T03:58:51.858Z,99260.31
2024-02-05T04:01:19.733Z,99264.16
2024-02-05T04:03:47.653Z,99267.38
2024-02-05T04:06:18.355Z,99277.25
2024-02-05T04:08:46.012Z,99275.94
2024-02-05T04:11:14.714Z,99267.81
2024-02-05T04:13:42.401Z,99270.38
2024-02-05T04:16:15.515Z,99264.16
2024-02-05T04:18:43.293Z,99267.06
2024-02-05T04:21:11.173Z,99259.53
2024-02-05T04:23:39.194Z,99257.09
2024-02-05T04:26:16.850Z,99254.91
2024-02-05T04:28:44.755Z,99236.22
2024-02-05T04:31:14.347Z,99240.41
2024-02-05T04:33:43.328Z,99241.81
2024-02-05T04:36:14.873Z,99239.78
2024-02-05T04:38:43.875Z,99233.78
2024-02-05T04:41:13.702Z,99228.66
2024-02-05T04:43:44.118Z,99235.22
2024-02-05T04:46:13.663Z,99221.59
2024-02-05T04:48:41.465Z,99217.09
2024-02-05T04:51:13.374Z,99212.50
2024-02-05T04:53:44.280Z,99208.66
2024-02-05T04:56:12.780Z,99211.44
2024-02-05T04:58:41.692Z,99215.84
2024-02-05T05:01:12.750Z,99216.22
2024-02-05T05:03:41.013Z,99218.03
2024-02-05T05:06:08.881Z,99206.72
2024-02-05T05:08:36.949Z,99191.38
2024-02-05T05:11:04.960Z,99202.59
2024-02-05T05:13:32.838Z,99221.31
2024-02-05T05:16:06.516Z,99225.44
2024-02-05T05:18:34.444Z,99227.72
2024-02-05T05:21:02.185Z,99224.38
2024-02-05T05:23:32.435Z,99223.88
2024-02-05T05:26:00.146Z,99228.72
2024-02-05T05:28:32.096Z,99219.88
2024-02-05T05:30:59.960Z,99225.72
2024-02-05T05:33:29.532Z,99220.59
2024-02-05T05:35:59.106Z,99234.00
2024-02-05T05:38:29.347Z,99228.09
2024-02-05T05:40:58.340Z,99241.69
2024-02-05T05:43:26.157Z,99233.66
2024-02-05T05:45:54.006Z,99245.06
2024-02-05T05:48:21.765Z,99245.00
2024-02-05T05:50:50.382Z,99243.53
2024-02-05T05:53:18.207Z,99258.13
2024-02-05T05:55:50.096Z,99250.91
2024-02-05T05:58:20.864Z,99246.41
2024-02-05T06:00:49.688Z,99253.53
2024-02-05T06:03:17.545Z,99258.69
2024-02-05T06:05:49.040Z,99253.78
2024-02-05T06:08:18.709Z,99258.78
2024-02-05T06:10:46.488Z,99254.38
2024-02-05T06:13:15.066Z,99258.22
2024-02-05T06:15:42.952Z,99255.16
2024-02-05T06:18:10.777Z,99263.44
2024-02-05T06:20:38.492Z,99273.22
2024-02-05T06:23:07.206Z,99260.25
2024-02-05T06:25:39.193Z,99269.06
2024-02-05T06:28:10.497Z,99266.59
2024-02-05T06:30:42.064Z,99274.84
2024-02-05T06:33:10.032Z,99274.50
2024-02-05T06:35:37.936Z,99279.38
2024-02-05T06:38:06.448Z,99279.00
2024-02-05T06:40:34.223Z,99281.38
2024-02-05T06:43:02.066Z,99271.41
2024-02-05T06:45:30.156Z,99271.72
2024-02-05T06:48:01.492Z,99276.03
2024-02-05T06:50:29.279Z,99269.19
2024-02-05T06:52:57.102Z,99277.66
2024-02-05T06:55:25.060Z,99276.03
2024-02-05T06:57:56.470Z,99277.41
2024-02-05T07:00:24.188Z,99271.00
2024-02-05T07:02:52.030Z,99283.25
2024-02-05T07:05:21.837Z,99280.47
2024-02-05T07:07:49.702Z,99271.88
2024-02-05T07:10:18.087Z,99281.16
2024-02-05T07:12:45.925Z,99292.66
2024-02-05T07:15:13.844Z,99280.84
2024-02-05T07:17:44.705Z,99291.38
2024-02-05T07:20:12.871Z,99286.63
2024-02-05T07:22:42.671Z,99288.50
2024-02-05T07:25:10.576Z,99294.47
2024-02-05T07:27:39.270Z,99297.47
2024-02-05T07:30:08.025Z,99289.94
2024-02-05T07:32:35.852Z,99287.94
2024-02-05T07:35:03.673Z,99292.53
2024-02-05T07:37:31.572Z,99285.25
2024-02-05T07:39:59.337Z,99285.63
2024-02-05T07:42:27.015Z,99295.78
2024-02-05T07:44:55.514Z,99286.66
2024-02-05T07:47:24.020Z,99274.81
2024-02-05T07:49:52.652Z,99290.88
2024-02-05T07:52:20.505Z,99280.59
2024-02-05T07:54:49.179Z,99282.28
2024-02-05T07:57:20.242Z,99286.97
2024-02-05T07:59:47.896Z,99275.94
2024-02-05T08:02:16.456Z,99290.16
2024-02-05T08:04:45.084Z,99275.09
2024-02-05T08:07:12.936Z,99279.63
2024-02-05T08:09:41.590Z,99290.91
2024-02-05T08:12:09.393Z,99300.47
2024-02-05T08:14:38.070Z,99298.25
2024-02-05T08:17:08.730Z,99314.34
2024-02-05T08:19:37.003Z,99315.16
2024-02-05T08:22:06.165Z,99324.59
2024-02-05T08:24:33.961Z,99333.88
2024-02-05T08:27:01.930Z,99338.16
2024-02-05T08:29:30.471Z,99329.09
2024-02-05T08:31:59.487Z,99338.78
2024-02-05T08:34:28.779Z,99340.03
2024-02-05T08:36:57.461Z,99329.50
2024-02-05T08:39:26.013Z,99353.88
2024-02-05T08:41:53.728Z,99347.31
2024-02-05T08:44:23.693Z,99347.38
2024-02-05T08:46:51.407Z,99346.88
2024-02-05T08:49:19.305Z,99344.84
2024-02-05T08:51:47.242Z,99348.06
2024-02-05T08:54:14.981Z,99366.09
2024-02-05T08:56:42.619Z,99366.31
2024-02-05T08:59:10.401Z,99356.66
2024-02-05T09:01:38.243Z,99365.84
2024-02-05T09:04:06.167Z,99370.03
2024-02-05T09:06:34.032Z,99352.75
2024-02-05T09:09:01.720Z,99358.41
2024-02-05T09:11:34.900Z,99373.84
2024-02-05T09:14:05.535Z,99358.41
2024-02-05T09:16:33.161Z,99369.94
2024-02-05T09:19:00.987Z,99377.56
2024-02-05T09:21:28.867Z,99381.09
2024-02-05T09:23:56.550Z,99376.69
2024-02-05T09:26:24.263Z,99377.66
2024-02-05T09:28:51.977Z,99379.00
2024-02-05T09:31:20.082Z,99374.59
2024-02-05T09:33:48.634Z,99382.44
2024-02-05T09:36:16.335Z,99376.06
2024-02-05T09:38:44.845Z,99377.91
2024-02-05T09:41:21.692Z,99387.09
2024-02-05T09:43:51.759Z,99399.63
2024-02-05T09:46:24.197Z,99406.97
2024-02-05T09:48:53.743Z,99420.34
2024-02-05T09:51:24.063Z,99409.44
2024-02-05T09:53:53.429Z,99407.47
2024-02-05T09:56:29.771Z,99404.50
2024-02-05T09:58:59.255Z,99408.91
2024-02-05T10:01:28.435Z,99409.16
2024-02-05T10:03:57.963Z,99393.38
2024-02-05T10:06:35.138Z,99403.03
2024-02-05T10:09:08.116Z,99393.72
2024-02-05T10:11:44.507Z,99400.84
2024-02-05T10:14:12.541Z,99408.28
2024-02-05T10:16:41.625Z,99403.41
2024-02-05T10:19:09.471Z,99412.53
2024-02-05T10:21:37.237Z,99396.22
2024-02-05T10:24:05.304Z,99398.59
2024-02-05T10:26:33.242Z,99403.16
2024-02-05T10:29:09.522Z,99402.41
2024-02-05T10:31:50.668Z,99380.84
2024-02-05T10:34:26.348Z,99391.19
2024-02-05T10:36:54.881Z,99392.88
2024-02-05T10:39:26.076Z,99388.53
2024-02-05T10:41:56.924Z,99396.69
2024-02-05T10:44:34.321Z,99413.03
2024-02-05T10:47:13.262Z,99399.34
2024-02-05T10:49:41.705Z,99387.53
2024-02-05T10:52:12.168Z,99373.06
2024-02-05T10:54:42.641Z,99396.19
2024-02-05T10:57:11.475Z,99381.75
2024-02-05T10:59:40.221Z,99382.47
2024-02-05T11:02:26.678Z,99372.28
2024-02-05T11:04:58.128Z,99370.41
2024-02-05T11:07:33.288Z,99379.28
2024-02-05T11:10:06.454Z,99385.41
2024-02-05T11:12:35.299Z,99349.94
2024-02-05T11:15:11.301Z,99376.56
2024-02-05T11:17:40.181Z,99380.66
2024-02-05T11:20:12.757Z,99377.63
2024-02-05T11:22:45.510Z,99383.06
2024-02-05T11:25:15.809Z,99354.50
2024-02-05T11:27:45.066Z,99370.09
2024-02-05T11:30:16.772Z,99371.97
2024-02-05T11:32:44.556Z,99371.97
2024-02-05T11:35:15.947Z,99372.41
2024-02-05T11:37:47.738Z,99373.81
2024-02-05T11:40:24.514Z,99389.66
2024-02-05T11:43:08.940Z,99384.34
2024-02-05T11:45:37.907Z,99399.09
2024-02-05T11:48:08.393Z,99392.81
2024-02-05T11:50:37.586Z,99387.50
2024-02-05T11:53:05.429Z,99406.50
2024-02-05T11:55:33.306Z,99394.59
2024-02-05T11:58:01.070Z,99386.69
2024-02-05T12:00:29.441Z,99383.06
2024-02-05T12:02:57.324Z,99390.97
2024-02-05T12:05:26.464Z,99387.00
2024-02-05T12:07:56.852Z,99388.41
2024-02-05T12:10:25.567Z,99366.94
2024-02-05T12:12:54.902Z,99369.59
2024-02-05T12:15:30.927Z,99380.00
2024-02-05T12:18:04.254Z,99390.91
2024-02-05T12:20:32.408Z,99350.41
2024-02-05T12:23:01.866Z,99357.69
2024-02-05T12:25:38.247Z,99381.94
2024-02-05T12:28:15.838Z,99371.22
2024-02-05T12:30:44.089Z,99371.09
2024-02-05T12:33:17.141Z,99360.59
2024-02-05T12:35:56.511Z,99367.28
2024-02-05T12:38:26.306Z,99359.16
2024-02-05T12:40:58.409Z,99358.56
2024-02-05T12:43:33.064Z,99382.31
2024-02-05T12:46:01.018Z,99379.53
2024-02-05T12:48:29.749Z,99363.16
2024-02-05T12:50:57.563Z,99392.53
2024-02-05T12:53:25.560Z,99370.47
2024-02-05T12:55:53.330Z,99378.63
2024-02-05T12:58:26.600Z,99381.81
2024-02-05T13:00:55.227Z,99382.44
2024-02-05T13:03:22.970Z,99375.63
2024-02-05T13:05:51.032Z,99377.88
2024-02-05T13:08:19.903Z,99382.53
2024-02-05T13:10:49.385Z,99379.25
2024-02-05T13:13:17.791Z,99376.56
2024-02-05T13:15:46.301Z,99368.78
2024-02-05T13:18:15.088Z,99382.38
2024-02-05T13:20:44.954Z,99365.91
2024-02-05T13:23:14.138Z,99367.41
2024-02-05T13:25:45.979Z,99381.50
2024-02-05T13:28:15.303Z,99394.09
2024-02-05T13:30:43.337Z,99384.81
2024-02-05T13:33:11.334Z,99379.31
2024-02-05T13:35:39.184Z,99388.69
2024-02-05T13:38:07.268Z,99395.94
2024-02-05T13:40:36.256Z,99382.06
2024-02-05T13:43:04.521Z,99393.63
2024-02-05T13:45:32.763Z,99388.31
2024-02-05T13:48:00.952Z,99388.47
2024-02-05T13:50:32.328Z,99375.25
2024-02-05T13:53:01.783Z,99381.59
2024-02-05T13:55:29.616Z,99383.38
2024-02-05T13:57:57.467Z,99393.66
2024-02-05T14:00:27.157Z,99405.00
2024-02-05T14:02:54.897Z,99405.69
2024-02-05T14:05:22.853Z,99410.41
2024-02-05T14:07:51.672Z,99419.81
2024-02-05T14:10:19.639Z,99420.47
2024-02-05T14:12:47.329Z,99422.19
2024-02-05T14:15:15.069Z,99421.47
2024-02-05T14:17:42.750Z,99409.06
2024-02-05T14:20:11.418Z,99418.72
2024-02-05T14:22:39.351Z,99418.00
2024-02-05T14:25:08.532Z,99417.53
2024-02-05T14:27:37.141Z,99409.44
2024-02-05T14:30:06.629Z,99406.00
2024-02-05T14:32:34.492Z,99414.34
2024-02-05T14:35:02.285Z,99407.19
2024-02-05T14:37:30.045Z,99401.59
2024-02-05T14:40:00.503Z,99399.38
2024-02-05T14:42:29.118Z,99400.38
2024-02-05T14:44:59.644Z,99403.53
2024-02-05T14:47:27.547Z,99397.91
2024-02-05T14:49:55.407Z,99393.25
2024-02-05T14:52:24.494Z,99394.00
2024-02-05T14:54:52.260Z,99389.91
2024-02-05T14:57:20.051Z,99398.03
2024-02-05T14:59:47.786Z,99398.63
2024-02-05T15:02:16.777Z,99397.28
2024-02-05T15:04:44.605Z,99403.56
2024-02-05T15:07:13.412Z,99384.28
2024-02-05T15:09:42.436Z,99384.16
2024-02-05T15:12:12.195Z,99373.50
2024-02-05T15:14:40.006Z,99376.91
2024-02-05T15:17:08.202Z,99368.19
2024-02-05T15:19:36.072Z,99367.47
2024-02-05T15:22:05.033Z,99362.78
2024-02-05T15:24:32.705Z,99363.25
2024-02-05T15:27:00.416Z,99371.25
2024-02-05T15:29:28.323Z,99373.31
2024-02-05T15:31:57.958Z,99373.50
2024-02-05T15:34:25.898Z,99372.91
2024-02-05T15:36:54.410Z,99377.91
2024-02-05T15:39:22.121Z,99388.03
2024-02-05T15:41:49.913Z,99400.41
2024-02-05T15:44:20.048Z,99410.69
2024-02-05T15:46:49.864Z,99415.84
2024-02-05T15:49:18.560Z,99424.34
2024-02-05T15:51:47.390Z,99426.41
2024-02-05T15:54:15.218Z,99433.66
2024-02-05T15:56:45.083Z,99424.50
2024-02-05T15:59:12.789Z,99432.34
2024-02-05T16:01:47.545Z,99425.25
2024-02-05T16:04:15.908Z,99437.97
2024-02-05T16:06:43.702Z,99437.84
2024-02-05T16:09:12.192Z,99436.19
2024-02-05T16:11:39.885Z,99432.31
2024-02-05T16:14:12.085Z,99431.03
2024-02-05T16:16:40.895Z,99427.53
2024-02-05T16:19:15.759Z,99439.19
2024-02-05T16:21:50.684Z,99436.38
2024-02-05T16:24:20.264Z,99435.03
2024-02-05T16:26:48.010Z,99445.19
2024-02-05T16:29:15.737Z,99444.16
2024-02-05T16:31:43.645Z,99440.00
2024-02-05T16:34:15.341Z,99442.31
2024-02-05T16:36:43.179Z,99450.31
2024-02-05T16:39:11.314Z,99458.72
2024-02-05T16:41:39.167Z,99450.34
2024-02-05T16:44:08.719Z,99453.69
2024-02-05T16:46:37.150Z,99458.34
2024-02-05T16:49:06.278Z,99453.59
2024-02-05T16:51:35.199Z,99442.63
2024-02-05T16:54:04.081Z,99443.81
2024-02-05T16:56:32.073Z,99449.50
2024-02-05T16:58:59.774Z,99456.22
2024-02-05T17:01:27.683Z,99456.44
2024-02-05T17:03:57.614Z,99458.38
2024-02-05T17:06:26.432Z,99455.00
2024-02-05T17:08:55.420Z,99448.69
2024-02-05T17:11:24.060Z,99444.19
2024-02-05T17:13:51.806Z,99446.63
2024-02-05T17:16:20.938Z,99437.72
2024-02-05T17:18:48.812Z,99436.63
2024-02-05T17:21:18.920Z,99444.41
2024-02-05T17:23:47.711Z,99443.09
2024-02-05T17:26:18.486Z,99444.72
2024-02-05T17:28:46.706Z,99450.84
2024-02-05T17:31:15.568Z,99447.84
2024-02-05T17:33:44.568Z,99449.78
2024-02-05T17:36:13.325Z,99448.41
2024-02-05T17:38:42.288Z,99453.78
2024-02-05T17:41:11.149Z,99453.66
2024-02-05T17:43:41.352Z,99465.78
2024-02-05T17:46:09.255Z,99468.50
2024-02-05T17:48:37.829Z,99464.41
2024-02-05T17:51:05.695Z,99466.34
2024-02-05T17:53:35.236Z,99475.38
2024-02-05T17:56:05.098Z,99468.38
2024-02-05T17:58:33.008Z,99475.34
2024-02-05T18:01:03.509Z,99475.13
2024-02-05T18:03:31.651Z,99477.16
2024-02-05T18:05:59.417Z,99481.50
2024-02-05T18:08:29.325Z,99486.66
2024-02-05T18:10:58.537Z,99477.88
2024-02-05T18:13:27.390Z,99486.56
2024-02-05T18:15:56.241Z,99485.38
2024-02-05T18:18:26.747Z,99494.06
2024-02-05T18:20:56.384Z,99493.75
2024-02-05T18:23:24.983Z,99494.34
2024-02-05T18:25:53.690Z,99485.34
2024-02-05T18:28:24.142Z,99486.78
2024-02-05T18:30:52.144Z,99486.31
2024-02-05T18:33:20.938Z,99481.78
2024-02-05T18:35:50.548Z,99483.00
2024-02-05T18:38:18.568Z,99491.38
2024-02-05T18:40:47.702Z,99484.47
2024-02-05T18:43:16.709Z,99485.31
2024-02-05T18:45:46.309Z,99485.28
2024-02-05T18:48:15.128Z,99481.63
2024-02-05T18:50:43.066Z,99479.56
2024-02-05T18:53:11.567Z,99488.91
2024-02-05T18:55:39.505Z,99485.34
2024-02-05T18:58:07.393Z,99483.47
2024-02-05T19:00:37.006Z,99490.38
2024-02-05T19:03:06.794Z,99494.47
2024-02-05T19:05:36.878Z,99496.06
2024-02-05T19:08:05.136Z,99502.97
2024-02-05T19:10:33.729Z,99493.84
2024-02-05T19:13:03.362Z,99490.59
2024-02-05T19:15:32.031Z,99485.22
2024-02-05T19:17:59.825Z,99485.63
2024-02-05T19:20:29.339Z,99480.66
2024-02-05T19:22:57.102Z,99478.09
2024-02-05T19:25:24.976Z,99482.19
2024-02-05T19:27:54.635Z,99487.00
2024-02-05T19:30:23.555Z,99472.72
2024-02-05T19:32:53.538Z,99472.91
2024-02-05T19:35:21.461Z,99478.78
2024-02-05T19:37:50.353Z,99477.03
2024-02-05T19:40:21.579Z,99478.56
2024-02-05T19:42:49.298Z,99484.41
2024-02-05T19:45:17.366Z,99478.19
2024-02-05T19:47:48.109Z,99482.53
2024-02-05T19:50:17.760Z,99483.66
2024-02-05T19:52:47.464Z,99491.28
2024-02-05T19:55:20.422Z,99475.72
2024-02-05T19:57:50.869Z,99479.50
2024-02-05T20:00:20.364Z,99481.84
2024-02-05T20:02:48.215Z,99493.78
2024-02-05T20:05:16.230Z,99491.47
2024-02-05T20:07:44.426Z,99495.13
2024-02-05T20:10:14.355Z,99491.09
2024-02-05T20:12:44.944Z,99490.41
2024-02-05T20:15:14.615Z,99496.97
2024-02-05T20:17:42.850Z,99496.41
2024-02-05T20:20:11.495Z,99491.22
2024-02-05T20:22:40.278Z,99489.81
2024-02-05T20:25:09.551Z,99479.22
2024-02-05T20:27:38.971Z,99487.38
2024-02-05T20:30:08.052Z,99481.63
2024-02-05T20:32:36.430Z,99478.88
2024-02-05T20:35:04.768Z,99484.47
2024-02-05T20:37:32.777Z,99487.94
2024-02-05T20:40:00.967Z,99487.06
2024-02-05T20:42:30.597Z,99478.59
2024-02-05T20:44:58.864Z,99495.78
2024-02-05T20:47:28.205Z,99492.66
2024-02-05T20:49:56.173Z,99487.81
2024-02-05T20:52:25.963Z,99487.53
2024-02-05T20:54:54.165Z,99483.72
2024-02-05T20:57:22.020Z,99488.25
2024-02-05T20:59:53.182Z,99485.78
2024-02-05T21:02:22.217Z,99483.47
2024-02-05T21:04:51.937Z,99481.84
2024-02-05T21:07:23.410Z,99481.06
2024-02-05T21:09:51.356Z,99477.81
2024-02-05T21:12:21.123Z,99484.81
2024-02-05T21:14:52.987Z,99490.19
2024-02-05T21:17:20.748Z,99487.56
2024-02-05T21:19:48.597Z,99490.41
2024-02-05T21:22:18.047Z,99477.09
2024-02-05T21:24:45.853Z,99484.94
2024-02-05T21:27:13.578Z,99476.47
2024-02-05T21:29:43.341Z,99487.78
2024-02-05T21:32:11.916Z,99494.28
2024-02-05T21:34:40.911Z,99487.72
2024-02-05T21:37:08.688Z,99490.16
2024-02-05T21:39:37.124Z,99479.50
2024-02-05T21:42:05.074Z,99482.47
2024-02-05T21:44:33.651Z,99481.88
2024-02-05T21:47:01.457Z,99473.44
2024-02-05T21:49:30.070Z,99472.22
2024-02-05T21:51:57.832Z,99473.00
2024-02-05T21:54:25.654Z,99479.84
2024-02-05T21:56:53.419Z,99473.97
2024-02-05T21:59:22.940Z,99476.09
2024-02-05T22:01:51.155Z,99482.53
2024-02-05T22:04:19.051Z,99484.72
2024-02-05T22:06:46.903Z,99483.13
2024-02-05T22:09:14.701Z,99487.13
2024-02-05T22:11:42.462Z,99495.13
2024-02-05T22:14:10.159Z,99492.81
2024-02-05T22:16:37.945Z,99499.66
2024-02-05T22:19:06.006Z,99492.84
2024-02-05T22:21:37.992Z,99495.25
2024-02-05T22:24:06.903Z,99500.66
2024-02-05T22:26:34.631Z,99507.81
2024-02-05T22:29:02.520Z,99508.75
2024-02-05T22:31:30.296Z,99509.88
2024-02-05T22:33:58.147Z,99509.44
2024-02-05T22:36:27.604Z,99506.94
2024-02-05T22:38:55.324Z,99503.34
2024-02-05T22:41:26.501Z,99499.94
2024-02-05T22:43:54.224Z,99498.66
2024-02-05T22:46:22.071Z,99501.16
2024-02-05T22:48:52.666Z,99505.16
2024-02-05T22:51:20.557Z,99499.09
2024-02-05T22:53:49.152Z,99503.38
2024-02-05T22:56:17.685Z,99507.09
2024-02-05T22:58:47.284Z,99504.38
2024-02-05T23:01:15.178Z,99514.88
2024-02-05T23:03:43.235Z,99500.00
2024-02-05T23:06:11.073Z,99511.50
2024-02-05T23:08:40.624Z,99506.16
2024-02-05T23:11:08.350Z,99502.94
2024-02-05T23:13:36.733Z,99501.75
2024-02-05T23:16:05.206Z,99517.41
2024-02-05T23:18:33.191Z,99517.69
2024-02-05T23:21:02.952Z,99513.19
2024-02-05T23:23:30.749Z,99520.44
2024-02-05T23:25:59.394Z,99523.13
2024-02-05T23:28:28.486Z,99518.56
2024-02-05T23:30:56.341Z,99518.28
2024-02-05T23:33:25.093Z,99505.28
2024-02-05T23:35:53.044Z,99518.69
2024-02-05T23:38:21.883Z,99514.31
2024-02-05T23:40:52.521Z,99504.66
2024-02-05T23:43:21.581Z,99501.63
2024-02-05T23:45:49.577Z,99503.75
2024-02-05T23:48:18.386Z,99498.03
2024-02-05T23:50:46.212Z,99497.78
2024-02-05T23:53:15.972Z,99495.88
2024-02-05T23:55:44.948Z,99493.81
2024-02-05T23:58:13.820Z,99495.94
